createdAt,value
2023-05-21T00:02:14.869Z,99.90
2023-05-21T00:05:07.902Z,99.90
2023-05-21T00:11:54.609Z,99.90
2023-05-21T00:18:18.838Z,99.90
2023-05-21T00:21:53.066Z,99.90
2023-05-21T00:25:08.526Z,99.90
2023-05-21T00:27:56.168Z,99.90
2023-05-21T00:31:17.120Z,99.90
2023-05-21T00:34:04.315Z,99.90
2023-05-21T00:36:53.456Z,99.90
2023-05-21T00:43:16.175Z,99.90
2023-05-21T00:46:28.933Z,99.90
2023-05-21T00:49:58.038Z,99.90
2023-05-21T00:57:01.064Z,99.90
2023-05-21T01:00:15.606Z,99.90
2023-05-21T01:03:45.305Z,99.90
2023-05-21T01:06:42.446Z,99.90
2023-05-21T01:09:47.832Z,99.90
2023-05-21T01:12:52.712Z,99.90
2023-05-21T01:15:44.415Z,99.90
2023-05-21T01:19:09.224Z,99.90
2023-05-21T01:22:53.862Z,99.90
2023-05-21T01:25:45.473Z,99.90
2023-05-21T01:28:46.108Z,99.90
2023-05-21T01:32:29.859Z,99.90
2023-05-21T01:35:32.547Z,99.90
2023-05-21T01:38:42.598Z,99.90
2023-05-21T01:42:11.728Z,99.90
2023-05-21T01:45:19.884Z,99.90
2023-05-21T01:48:15.083Z,99.90
2023-05-21T01:51:44.142Z,99.90
2023-05-21T01:54:43.331Z,99.90
2023-05-21T01:57:41.283Z,99.90
2023-05-21T02:04:26.924Z,99.90
2023-05-21T02:07:37.841Z,99.90
2023-05-21T02:10:29.188Z,99.90
2023-05-21T02:13:26.478Z,99.90
2023-05-21T02:16:17.281Z,99.90
2023-05-21T02:19:13.060Z,99.90
2023-05-21T02:23:00.590Z,99.90
2023-05-21T02:33:22.183Z,99.90
2023-05-21T02:41:16.653Z,99.90
2023-05-21T02:44:45.538Z,99.90
2023-05-21T02:48:07.707Z,99.90
2023-05-21T02:51:19.302Z,99.90
2023-05-21T02:54:26.026Z,99.90
2023-05-21T02:57:33.610Z,99.90
2023-05-21T03:00:40.773Z,99.90
2023-05-21T03:03:31.137Z,99.90
2023-05-21T03:06:18.527Z,99.90
2023-05-21T03:09:06.262Z,99.90
2023-05-21T03:11:53.602Z,99.90
2023-05-21T03:14:44.168Z,99.90
2023-05-21T03:17:32.286Z,99.90
2023-05-21T03:20:19.771Z,99.90
2023-05-21T03:23:16.382Z,99.90
2023-05-21T03:26:17.829Z,99.90
2023-05-21T03:29:07.539Z,99.90
2023-05-21T03:31:55.786Z,99.90
2023-05-21T03:34:43.014Z,99.90
2023-05-21T03:37:30.211Z,99.90
2023-05-21T03:40:17.499Z,99.90
2023-05-21T03:43:04.665Z,99.90
2023-05-21T03:45:51.999Z,99.90
2023-05-21T03:48:40.355Z,99.90
2023-05-21T03:51:27.787Z,99.90
2023-05-21T03:54:14.961Z,99.90
2023-05-21T03:57:02.090Z,99.90
2023-05-21T03:59:49.246Z,99.90
2023-05-21T04:02:48.407Z,99.90
2023-05-21T04:06:32.051Z,99.90
2023-05-21T04:09:19.268Z,99.90
2023-05-21T04:12:07.924Z,99.90
2023-05-21T04:14:55.140Z,99.90
2023-05-21T04:17:42.371Z,99.90
2023-05-21T04:20:29.543Z,99.90
2023-05-21T04:23:28.429Z,99.90
2023-05-21T04:26:20.616Z,99.90
2023-05-21T04:29:21.692Z,99.90
2023-05-21T04:32:12.325Z,99.90
2023-05-21T04:35:05.831Z,99.90
2023-05-21T04:37:55.455Z,99.90
2023-05-21T04:40:43.584Z,99.90
2023-05-21T04:43:35.109Z,99.90
2023-05-21T04:46:31.712Z,99.90
2023-05-21T04:49:23.823Z,99.90
2023-05-21T04:52:11.600Z,99.90
2023-05-21T04:55:01.942Z,99.90
2023-05-21T04:58:03.556Z,99.90
2023-05-21T05:00:52.017Z,99.90
2023-05-21T05:03:39.451Z,99.90
2023-05-21T05:06:26.813Z,99.90
2023-05-21T05:09:14.151Z,99.90
2023-05-21T05:12:04.464Z,99.90
2023-05-21T05:14:51.892Z,99.90
2023-05-21T05:17:39.868Z,99.90
2023-05-21T05:20:27.185Z,99.90
2023-05-21T05:23:20.684Z,99.90
2023-05-21T05:26:08.247Z,99.90
2023-05-21T05:29:22.135Z,99.90
2023-05-21T05:32:12.558Z,99.90
2023-05-21T05:35:02.519Z,99.90
2023-05-21T05:37:49.992Z,99.90
2023-05-21T05:40:37.358Z,99.90
2023-05-21T05:43:26.507Z,99.90
2023-05-21T05:46:13.664Z,99.90
2023-05-21T05:49:00.879Z,99.90
2023-05-21T05:51:48.004Z,99.90
2023-05-21T05:54:35.203Z,99.90
2023-05-21T05:57:22.430Z,99.90
2023-05-21T06:00:10.793Z,99.90
2023-05-21T06:02:58.261Z,99.90
2023-05-21T06:05:45.659Z,99.90
2023-05-21T06:08:38.170Z,99.90
2023-05-21T06:11:25.733Z,99.90
2023-05-21T06:14:12.886Z,99.90
2023-05-21T06:17:00.204Z,99.90
2023-05-21T06:19:47.575Z,99.90
2023-05-21T06:22:35.156Z,99.90
2023-05-21T06:25:25.884Z,99.90
2023-05-21T06:28:14.324Z,99.90
2023-05-21T06:31:07.254Z,99.90
2023-05-21T06:33:57.597Z,99.90
2023-05-21T06:37:00.278Z,99.90
2023-05-21T06:43:17.370Z,99.90
2023-05-21T06:46:04.688Z,99.90
2023-05-21T06:49:17.625Z,99.90
2023-05-21T06:52:20.987Z,99.90
2023-05-21T06:55:25.558Z,99.90
2023-05-21T06:58:20.093Z,99.90
2023-05-21T07:02:05.408Z,99.90
2023-05-21T07:05:00.719Z,99.90
2023-05-21T07:07:52.127Z,99.90
2023-05-21T07:11:18.057Z,99.90
2023-05-21T07:14:57.578Z,99.90
2023-05-21T07:17:55.797Z,99.90
2023-05-21T07:20:42.978Z,99.90
2023-05-21T07:23:30.140Z,99.90
2023-05-21T07:26:17.349Z,99.90
2023-05-21T07:29:04.502Z,99.90
2023-05-21T07:31:51.631Z,99.90
2023-05-21T07:34:38.923Z,99.90
2023-05-21T07:37:27.815Z,99.90
2023-05-21T07:40:15.304Z,99.90
2023-05-21T07:43:04.008Z,99.90
2023-05-21T07:45:51.657Z,99.90
2023-05-21T07:48:59.351Z,99.90
2023-05-21T07:52:06.763Z,99.90
2023-05-21T07:54:57.991Z,99.90
2023-05-21T07:57:45.580Z,99.90
2023-05-21T08:00:50.344Z,99.90
2023-05-21T08:03:37.847Z,99.90
2023-05-21T08:06:25.160Z,99.90
2023-05-21T08:09:12.458Z,99.90
2023-05-21T08:11:59.662Z,99.90
2023-05-21T08:14:47.014Z,99.90
2023-05-21T08:17:34.220Z,99.90
2023-05-21T08:20:22.377Z,99.90
2023-05-21T08:23:09.597Z,97.10
2023-05-21T08:25:56.769Z,94.20
2023-05-21T08:28:46.742Z,90.40
2023-05-21T08:31:33.928Z,86.30
2023-05-21T08:34:21.201Z,81.50
2023-05-21T08:37:10.859Z,79.30
2023-05-21T08:39:58.111Z,77.30
2023-05-21T08:42:47.179Z,78.70
2023-05-21T08:45:38.412Z,75.70
2023-05-21T08:48:27.142Z,77.40
2023-05-21T08:51:14.715Z,73.20
2023-05-21T08:54:03.012Z,73.70
2023-05-21T08:56:50.610Z,73.50
2023-05-21T08:59:42.380Z,73.80
2023-05-21T09:02:32.734Z,69.30
2023-05-21T09:05:20.860Z,67.60
2023-05-21T09:08:18.119Z,64.30
2023-05-21T09:11:05.894Z,67.60
2023-05-21T09:13:54.055Z,64.60
2023-05-21T09:16:41.374Z,66.90
2023-05-21T09:19:32.612Z,65.30
2023-05-21T09:22:23.953Z,64.50
2023-05-21T09:25:12.652Z,65.00
2023-05-21T09:27:59.997Z,65.30
2023-05-21T09:30:54.439Z,65.70
2023-05-21T09:33:51.081Z,65.90
2023-05-21T09:36:38.876Z,66.40
2023-05-21T09:39:30.877Z,65.00
2023-05-21T09:42:21.665Z,62.90
2023-05-21T09:45:12.396Z,64.50
2023-05-21T09:47:59.654Z,65.40
2023-05-21T09:50:46.991Z,65.00
2023-05-21T09:53:34.189Z,62.20
2023-05-21T09:56:25.551Z,61.70
2023-05-21T09:59:12.788Z,60.50
2023-05-21T10:02:02.559Z,61.50
2023-05-21T10:04:51.422Z,59.60
2023-05-21T10:07:41.771Z,59.90
2023-05-21T10:10:30.340Z,60.10
2023-05-21T10:13:21.963Z,61.70
2023-05-21T10:16:09.724Z,61.10
2023-05-21T10:18:58.174Z,60.80
2023-05-21T10:21:46.412Z,58.80
2023-05-21T10:24:35.273Z,59.80
2023-05-21T10:27:23.331Z,58.50
2023-05-21T10:30:11.804Z,58.90
2023-05-21T10:33:01.907Z,57.80
2023-05-21T10:35:53.135Z,60.20
2023-05-21T10:38:43.082Z,55.80
2023-05-21T10:41:38.716Z,56.20
2023-05-21T10:44:30.492Z,55.30
2023-05-21T10:47:29.822Z,54.70
2023-05-21T10:50:45.821Z,55.10
2023-05-21T10:54:00.276Z,57.50
2023-05-21T10:57:20.514Z,55.30
2023-05-21T11:00:09.627Z,54.50
2023-05-21T11:02:58.651Z,52.90
2023-05-21T11:06:09.271Z,54.10
2023-05-21T11:08:56.702Z,53.80
2023-05-21T11:11:58.118Z,55.30
2023-05-21T11:14:58.373Z,55.40
2023-05-21T11:17:48.269Z,53.70
2023-05-21T11:20:35.864Z,54.40
2023-05-21T11:23:23.843Z,54.80
2023-05-21T11:26:11.014Z,54.90
2023-05-21T11:29:11.927Z,52.70
2023-05-21T11:32:03.046Z,52.70
2023-05-21T11:34:50.696Z,53.40
2023-05-21T11:37:40.989Z,52.60
2023-05-21T11:40:33.638Z,53.60
2023-05-21T11:43:20.879Z,54.00
2023-05-21T11:46:14.013Z,52.50
2023-05-21T11:49:02.958Z,53.00
2023-05-21T11:51:50.375Z,50.60
2023-05-21T11:54:51.282Z,50.70
2023-05-21T11:57:41.737Z,52.60
2023-05-21T12:00:29.528Z,51.60
2023-05-21T12:03:16.870Z,50.80
2023-05-21T12:06:08.488Z,52.20
2023-05-21T12:08:58.513Z,51.00
2023-05-21T12:11:46.367Z,50.10
2023-05-21T12:14:33.738Z,49.70
2023-05-21T12:17:25.932Z,49.30
2023-05-21T12:20:17.304Z,48.60
2023-05-21T12:23:04.564Z,49.90
2023-05-21T12:25:53.713Z,47.80
2023-05-21T12:28:41.345Z,45.90
2023-05-21T12:31:30.969Z,48.00
2023-05-21T12:34:42.774Z,47.70
2023-05-21T12:37:35.627Z,48.60
2023-05-21T12:40:35.446Z,46.50
2023-05-21T12:43:22.839Z,48.30
2023-05-21T12:46:17.407Z,47.60
2023-05-21T12:49:04.776Z,47.10
2023-05-21T12:51:52.150Z,47.00
2023-05-21T12:54:41.481Z,47.60
2023-05-21T12:57:36.296Z,47.30
2023-05-21T13:00:24.289Z,46.00
2023-05-21T13:03:12.119Z,48.30
2023-05-21T13:06:01.255Z,47.50
2023-05-21T13:08:48.573Z,46.70
2023-05-21T13:11:35.909Z,45.80
2023-05-21T13:14:23.252Z,45.90
2023-05-21T13:17:11.251Z,47.50
2023-05-21T13:20:21.834Z,47.20
2023-05-21T13:23:11.439Z,47.20
2023-05-21T13:25:59.306Z,47.20
2023-05-21T13:28:46.895Z,47.90
2023-05-21T13:31:34.143Z,47.70
2023-05-21T13:34:21.354Z,46.80
2023-05-21T13:37:08.615Z,47.00
2023-05-21T13:39:55.900Z,46.40
2023-05-21T13:42:44.236Z,48.00
2023-05-21T13:45:31.709Z,48.10
2023-05-21T13:48:18.993Z,47.10
2023-05-21T13:51:06.286Z,47.20
2023-05-21T13:53:55.542Z,46.70
2023-05-21T13:56:47.215Z,47.40
2023-05-21T13:59:34.488Z,47.40
2023-05-21T14:02:21.702Z,46.60
2023-05-21T14:05:12.826Z,48.40
2023-05-21T14:08:00.065Z,46.50
2023-05-21T14:10:48.204Z,46.70
2023-05-21T14:13:35.484Z,47.70
2023-05-21T14:16:24.961Z,45.90
2023-05-21T14:19:12.477Z,46.20
2023-05-21T14:21:59.970Z,46.40
2023-05-21T14:24:47.323Z,45.10
2023-05-21T14:27:34.745Z,45.70
2023-05-21T14:30:22.094Z,46.00
2023-05-21T14:33:09.449Z,46.10
2023-05-21T14:35:56.698Z,44.90
2023-05-21T14:38:43.873Z,44.50
2023-05-21T14:41:31.203Z,44.90
2023-05-21T14:44:18.372Z,44.80
2023-05-21T14:47:05.603Z,45.40
2023-05-21T14:49:52.884Z,45.60
2023-05-21T14:52:42.692Z,45.50
2023-05-21T14:55:30.899Z,45.80
2023-05-21T14:58:18.148Z,46.50
2023-05-21T15:01:05.630Z,46.30
2023-05-21T15:03:53.158Z,46.90
2023-05-21T15:06:41.253Z,47.90
2023-05-21T15:09:28.587Z,46.40
2023-05-21T15:12:15.959Z,46.90
2023-05-21T15:15:03.462Z,46.30
2023-05-21T15:17:50.939Z,45.80
2023-05-21T15:20:38.419Z,46.80
2023-05-21T15:23:25.958Z,45.50
2023-05-21T15:26:13.255Z,46.20
2023-05-21T15:29:00.636Z,47.40
2023-05-21T15:31:47.953Z,46.10
2023-05-21T15:34:35.263Z,45.20
2023-05-21T15:37:22.584Z,45.40
2023-05-21T15:40:10.320Z,46.30
2023-05-21T15:42:58.640Z,46.90
2023-05-21T15:45:45.923Z,46.60
2023-05-21T15:48:33.137Z,46.70
2023-05-21T15:51:20.586Z,46.60
2023-05-21T15:54:07.860Z,45.80
2023-05-21T15:56:56.878Z,46.20
2023-05-21T15:59:44.276Z,46.20
2023-05-21T16:02:31.545Z,47.20
2023-05-21T16:05:18.902Z,47.30
2023-05-21T16:08:06.213Z,47.00
2023-05-21T16:10:53.537Z,47.90
2023-05-21T16:13:41.311Z,48.90
2023-05-21T16:16:29.044Z,46.90
2023-05-21T16:19:16.456Z,46.30
2023-05-21T16:22:03.897Z,46.70
2023-05-21T16:24:51.414Z,47.10
2023-05-21T16:27:46.177Z,48.10
2023-05-21T16:30:33.470Z,48.90
2023-05-21T16:33:20.757Z,48.80
2023-05-21T16:36:08.314Z,50.10
2023-05-21T16:38:55.971Z,50.50
2023-05-21T16:41:43.923Z,51.50
2023-05-21T16:44:32.441Z,51.40
2023-05-21T16:47:20.499Z,51.60
2023-05-21T16:50:32.724Z,52.10
2023-05-21T16:53:20.063Z,53.00
2023-05-21T16:56:10.228Z,53.50
2023-05-21T16:58:57.906Z,54.20
2023-05-21T17:01:45.181Z,54.60
2023-05-21T17:04:32.770Z,55.10
2023-05-21T17:07:20.429Z,55.50
2023-05-21T17:10:08.298Z,56.10
2023-05-21T17:12:56.410Z,56.20
2023-05-21T17:15:44.590Z,56.40
2023-05-21T17:18:31.820Z,56.30
2023-05-21T17:21:22.693Z,56.70
2023-05-21T17:24:14.747Z,56.80
2023-05-21T17:27:02.443Z,56.90
2023-05-21T17:29:56.928Z,57.00
2023-05-21T17:32:44.666Z,57.50
2023-05-21T17:35:32.244Z,58.00
2023-05-21T17:38:19.529Z,58.10
2023-05-21T17:41:13.213Z,58.50
2023-05-21T17:44:00.494Z,58.30
2023-05-21T17:46:49.925Z,58.90
2023-05-21T17:49:38.713Z,59.40
2023-05-21T17:52:27.054Z,59.40
2023-05-21T17:55:14.518Z,59.20
2023-05-21T17:58:01.912Z,59.40
2023-05-21T18:00:49.279Z,59.90
2023-05-21T18:03:39.579Z,60.20
2023-05-21T18:06:27.849Z,60.70
2023-05-21T18:09:15.618Z,61.40
2023-05-21T18:12:03.657Z,62.60
2023-05-21T18:14:53.624Z,63.30
2023-05-21T18:17:40.853Z,63.80
2023-05-21T18:20:29.125Z,64.90
2023-05-21T18:23:16.753Z,64.50
2023-05-21T18:26:05.800Z,65.20
2023-05-21T18:28:53.097Z,65.50
2023-05-21T18:31:40.573Z,65.80
2023-05-21T18:34:27.951Z,66.00
2023-05-21T18:37:17.560Z,67.30
2023-05-21T18:40:06.190Z,67.00
2023-05-21T18:42:53.559Z,67.40
2023-05-21T18:45:41.123Z,67.80
2023-05-21T18:48:28.319Z,68.00
2023-05-21T18:51:15.758Z,68.40
2023-05-21T18:54:03.024Z,69.00
2023-05-21T18:56:50.324Z,69.50
2023-05-21T18:59:38.901Z,69.90
2023-05-21T19:02:27.230Z,69.40
2023-05-21T19:05:14.703Z,71.20
2023-05-21T19:08:02.051Z,71.50
2023-05-21T19:10:49.577Z,71.60
2023-05-21T19:13:37.124Z,72.20
2023-05-21T19:16:24.402Z,72.40
2023-05-21T19:19:11.818Z,72.90
2023-05-21T19:21:59.253Z,73.30
2023-05-21T19:24:47.054Z,73.30
2023-05-21T19:27:34.320Z,73.90
2023-05-21T19:30:21.584Z,74.30
2023-05-21T19:33:08.851Z,73.90
2023-05-21T19:35:56.238Z,74.50
2023-05-21T19:38:53.117Z,75.40
2023-05-21T19:41:45.162Z,75.70
2023-05-21T19:44:32.654Z,75.50
2023-05-21T19:47:20.979Z,75.70
2023-05-21T19:50:12.002Z,76.80
2023-05-21T19:52:59.246Z,77.30
2023-05-21T19:55:46.773Z,77.60
2023-05-21T19:58:33.986Z,77.90
2023-05-21T20:01:21.869Z,77.90
2023-05-21T20:04:09.931Z,77.60
2023-05-21T20:06:58.024Z,78.40
2023-05-21T20:09:45.486Z,78.90
2023-05-21T20:12:33.097Z,79.80
2023-05-21T20:15:20.883Z,81.10
2023-05-21T20:18:08.193Z,81.30
2023-05-21T20:20:56.988Z,81.40
2023-05-21T20:23:45.253Z,82.10
2023-05-21T20:26:40.499Z,83.50
2023-05-21T20:29:28.895Z,85.10
2023-05-21T20:32:16.082Z,85.60
2023-05-21T20:35:33.415Z,86.60
2023-05-21T20:41:08.227Z,88.80
2023-05-21T20:43:55.500Z,89.60
2023-05-21T20:46:42.887Z,90.00
2023-05-21T20:49:33.404Z,90.60
2023-05-21T20:52:21.188Z,90.50
2023-05-21T20:55:20.278Z,90.80
2023-05-21T20:58:07.574Z,91.50
2023-05-21T21:00:55.382Z,92.20
2023-05-21T21:03:48.686Z,91.90
2023-05-21T21:06:43.531Z,91.90
2023-05-21T21:09:32.961Z,92.20
2023-05-21T21:12:26.409Z,92.90
2023-05-21T21:15:14.855Z,93.90
2023-05-21T21:18:02.159Z,94.80
2023-05-21T21:20:50.423Z,95.20
2023-05-21T21:23:37.937Z,95.90
2023-05-21T21:26:25.265Z,96.90
2023-05-21T21:29:12.487Z,97.50
2023-05-21T21:31:59.710Z,98.00
2023-05-21T21:34:46.875Z,98.50
2023-05-21T21:37:36.227Z,98.70
2023-05-21T21:40:23.490Z,99.20
2023-05-21T21:43:10.668Z,99.50
2023-05-21T21:45:57.921Z,99.90
2023-05-21T21:52:19.107Z,99.90
2023-05-21T21:55:11.180Z,99.90
2023-05-21T21:58:03.127Z,99.90
2023-05-21T22:00:50.495Z,99.90
2023-05-21T22:03:52.155Z,99.90
2023-05-21T22:06:39.774Z,99.90
2023-05-21T22:09:27.550Z,99.90
2023-05-21T22:12:14.773Z,99.90
2023-05-21T22:15:05.283Z,99.90
2023-05-21T22:17:53.517Z,99.90
2023-05-21T22:20:45.084Z,99.90
2023-05-21T22:23:32.218Z,99.90
2023-05-21T22:26:22.847Z,99.90
2023-05-21T22:29:10.081Z,99.90
2023-05-21T22:31:57.352Z,99.90
2023-05-21T22:34:44.606Z,99.90
2023-05-21T22:37:31.893Z,99.90
2023-05-21T22:40:19.196Z,99.90
2023-05-21T22:43:06.826Z,99.90
2023-05-21T22:45:54.076Z,99.90
2023-05-21T22:48:42.020Z,99.90
2023-05-21T22:51:34.874Z,99.90
2023-05-21T22:54:22.700Z,99.90
2023-05-21T22:57:09.982Z,99.90
2023-05-21T22:59:57.115Z,99.90
2023-05-21T23:02:45.079Z,99.90
2023-05-21T23:05:32.544Z,99.90
2023-05-21T23:08:20.021Z,99.90
2023-05-21T23:11:16.298Z,99.90
2023-05-21T23:14:03.716Z,99.90
2023-05-21T23:17:07.270Z,99.90
2023-05-21T23:19:54.495Z,99.90
2023-05-21T23:22:56.396Z,99.90
2023-05-21T23:29:56.006Z,99.90
2023-05-21T23:32:43.154Z,99.90
2023-05-21T23:35:30.543Z,99.90
2023-05-21T23:38:21.287Z,99.90
2023-05-21T23:41:34.641Z,99.90
2023-05-21T23:44:26.506Z,99.90
2023-05-21T23:47:13.739Z,99.90
2023-05-21T23:50:03.692Z,99.90
2023-05-21T23:52:51.009Z,99.90
2023-05-21T23:55:38.194Z,99.90
2023-05-21T23:58:28.230Z,99.90
